sensor_id;sensor_type;location;lat;lon;timestamp;temperature;humidity
37268;DHT22;23154;52.542;13.362;2023-04-15T00:01:19;8.10;99.90
37268;DHT22;23154;52.542;13.362;2023-04-15T00:03:45;8.10;99.90
37268;DHT22;23154;52.542;13.362;2023-04-15T00:06:11;8.10;99.90
37268;DHT22;23154;52.542;13.362;2023-04-15T00:08:38;8.20;99.90
37268;DHT22;23154;52.542;13.362;2023-04-15T00:11:04;8.10;99.90
37268;DHT22;23154;52.542;13.362;2023-04-15T00:13:30;8.20;99.90
37268;DHT22;23154;52.542;13.362;2023-04-15T00:15:58;8.20;99.90
37268;DHT22;23154;52.542;13.362;2023-04-15T00:18:24;8.10;99.90
37268;DHT22;23154;52.542;13.362;2023-04-15T00:20:50;8.10;99.90
37268;DHT22;23154;52.542;13.362;2023-04-15T00:23:16;8.10;99.90
37268;DHT22;23154;52.542;13.362;2023-04-15T00:25:42;8.10;99.90
37268;DHT22;23154;52.542;13.362;2023-04-15T00:28:08;8.20;99.90
37268;DHT22;23154;52.542;13.362;2023-04-15T00:30:33;8.20;99.90
37268;DHT22;23154;52.542;13.362;2023-04-15T00:33:00;8.10;99.90
37268;DHT22;23154;52.542;13.362;2023-04-15T00:35:27;8.10;99.90
37268;DHT22;23154;52.542;13.362;2023-04-15T00:37:52;8.20;99.90
37268;DHT22;23154;52.542;13.362;2023-04-15T00:40:20;8.10;99.90
37268;DHT22;23154;52.542;13.362;2023-04-15T00:42:46;8.10;99.90
37268;DHT22;23154;52.542;13.362;2023-04-15T00:45:12;8.20;99.90
37268;DHT22;23154;52.542;13.362;2023-04-15T00:47:40;8.10;99.90
37268;DHT22;23154;52.542;13.362;2023-04-15T00:50:07;8.10;99.90
37268;DHT22;23154;52.542;13.362;2023-04-15T00:52:33;8.10;99.90
37268;DHT22;23154;52.542;13.362;2023-04-15T00:54:59;8.10;99.90
37268;DHT22;23154;52.542;13.362;2023-04-15T00:57:25;8.00;99.90
37268;DHT22;23154;52.542;13.362;2023-04-15T00:59:54;8.00;99.90
37268;DHT22;23154;52.542;13.362;2023-04-15T01:02:21;8.10;99.90
37268;DHT22;23154;52.542;13.362;2023-04-15T01:04:46;8.10;99.90
37268;DHT22;23154;52.542;13.362;2023-04-15T01:07:13;8.10;99.90
37268;DHT22;23154;52.542;13.362;2023-04-15T01:09:39;8.10;99.90
37268;DHT22;23154;52.542;13.362;2023-04-15T01:12:05;8.10;99.90
37268;DHT22;23154;52.542;13.362;2023-04-15T01:14:32;8.10;99.90
37268;DHT22;23154;52.542;13.362;2023-04-15T01:16:59;8.10;99.90
37268;DHT22;23154;52.542;13.362;2023-04-15T01:19:25;8.10;99.90
37268;DHT22;23154;52.542;13.362;2023-04-15T01:21:51;8.10;99.90
37268;DHT22;23154;52.542;13.362;2023-04-15T01:24:17;8.10;99.90
37268;DHT22;23154;52.542;13.362;2023-04-15T01:26:44;8.10;99.90
37268;DHT22;23154;52.542;13.362;2023-04-15T01:29:10;8.00;99.90
37268;DHT22;23154;52.542;13.362;2023-04-15T01:31:36;8.10;99.90
37268;DHT22;23154;52.542;13.362;2023-04-15T01:34:02;8.10;99.90
37268;DHT22;23154;52.542;13.362;2023-04-15T01:36:27;8.10;99.90
37268;DHT22;23154;52.542;13.362;2023-04-15T01:38:55;8.10;99.90
37268;DHT22;23154;52.542;13.362;2023-04-15T01:41:25;8.20;99.90
37268;DHT22;23154;52.542;13.362;2023-04-15T01:43:51;8.20;99.90
37268;DHT22;23154;52.542;13.362;2023-04-15T01:46:17;8.10;99.90
37268;DHT22;23154;52.542;13.362;2023-04-15T01:48:43;8.10;99.90
37268;DHT22;23154;52.542;13.362;2023-04-15T01:51:09;8.10;99.90
37268;DHT22;23154;52.542;13.362;2023-04-15T01:53:34;8.10;99.90
37268;DHT22;23154;52.542;13.362;2023-04-15T01:56:00;8.10;99.90
37268;DHT22;23154;52.542;13.362;2023-04-15T01:58:25;8.20;99.90
37268;DHT22;23154;52.542;13.362;2023-04-15T02:00:51;8.20;99.90
37268;DHT22;23154;52.542;13.362;2023-04-15T02:03:17;8.10;99.90
37268;DHT22;23154;52.542;13.362;2023-04-15T02:05:43;8.10;99.90
37268;DHT22;23154;52.542;13.362;2023-04-15T02:08:08;8.10;99.90
37268;DHT22;23154;52.542;13.362;2023-04-15T02:10:34;8.10;99.90
37268;DHT22;23154;52.542;13.362;2023-04-15T02:13:00;8.10;99.90
37268;DHT22;23154;52.542;13.362;2023-04-15T02:15:26;8.20;99.90
37268;DHT22;23154;52.542;13.362;2023-04-15T02:17:52;8.20;99.90
37268;DHT22;23154;52.542;13.362;2023-04-15T02:20:20;8.20;99.90
37268;DHT22;23154;52.542;13.362;2023-04-15T02:22:46;8.20;99.90
37268;DHT22;23154;52.542;13.362;2023-04-15T02:25:13;8.20;99.90
37268;DHT22;23154;52.542;13.362;2023-04-15T02:27:39;8.20;99.90
37268;DHT22;23154;52.542;13.362;2023-04-15T02:30:05;8.30;99.90
37268;DHT22;23154;52.542;13.362;2023-04-15T02:32:32;8.20;99.90
37268;DHT22;23154;52.542;13.362;2023-04-15T02:35:05;8.20;99.90
37268;DHT22;23154;52.542;13.362;2023-04-15T02:37:31;8.20;99.90
37268;DHT22;23154;52.542;13.362;2023-04-15T02:39:57;8.20;99.90
37268;DHT22;23154;52.542;13.362;2023-04-15T02:42:22;8.20;99.90
37268;DHT22;23154;52.542;13.362;2023-04-15T02:44:51;8.20;99.90
37268;DHT22;23154;52.542;13.362;2023-04-15T02:47:19;8.20;99.90
37268;DHT22;23154;52.542;13.362;2023-04-15T02:49:44;8.20;99.90
37268;DHT22;23154;52.542;13.362;2023-04-15T02:52:10;8.20;99.90
37268;DHT22;23154;52.542;13.362;2023-04-15T02:54:36;8.20;99.90
37268;DHT22;23154;52.542;13.362;2023-04-15T02:57:01;8.10;99.90
37268;DHT22;23154;52.542;13.362;2023-04-15T02:59:27;8.20;99.90
37268;DHT22;23154;52.542;13.362;2023-04-15T03:01:52;8.20;99.90
37268;DHT22;23154;52.542;13.362;2023-04-15T03:04:19;8.20;99.90
37268;DHT22;23154;52.542;13.362;2023-04-15T03:06:45;8.30;99.90
37268;DHT22;23154;52.542;13.362;2023-04-15T03:09:10;8.30;99.90
37268;DHT22;23154;52.542;13.362;2023-04-15T03:11:36;8.30;99.90
37268;DHT22;23154;52.542;13.362;2023-04-15T03:14:05;8.30;99.90
37268;DHT22;23154;52.542;13.362;2023-04-15T03:16:30;8.30;99.90
37268;DHT22;23154;52.542;13.362;2023-04-15T03:18:56;8.30;99.90
37268;DHT22;23154;52.542;13.362;2023-04-15T03:21:21;8.30;99.90
37268;DHT22;23154;52.542;13.362;2023-04-15T03:23:48;8.30;99.90
37268;DHT22;23154;52.542;13.362;2023-04-15T03:26:27;8.30;99.90
37268;DHT22;23154;52.542;13.362;2023-04-15T03:28:53;8.30;99.90
37268;DHT22;23154;52.542;13.362;2023-04-15T03:31:19;8.30;99.90
37268;DHT22;23154;52.542;13.362;2023-04-15T03:33:44;8.30;99.90
37268;DHT22;23154;52.542;13.362;2023-04-15T03:36:10;8.30;99.90
37268;DHT22;23154;52.542;13.362;2023-04-15T03:38:36;8.30;99.90
37268;DHT22;23154;52.542;13.362;2023-04-15T03:41:01;8.30;99.90
37268;DHT22;23154;52.542;13.362;2023-04-15T03:43:27;8.40;99.90
37268;DHT22;23154;52.542;13.362;2023-04-15T03:45:52;8.40;99.90
37268;DHT22;23154;52.542;13.362;2023-04-15T03:48:18;8.40;99.90
37268;DHT22;23154;52.542;13.362;2023-04-15T03:50:44;8.50;99.90
37268;DHT22;23154;52.542;13.362;2023-04-15T03:53:09;8.40;99.90
37268;DHT22;23154;52.542;13.362;2023-04-15T03:55:35;8.50;99.90
37268;DHT22;23154;52.542;13.362;2023-04-15T03:58:01;8.50;99.90
37268;DHT22;23154;52.542;13.362;2023-04-15T04:00:26;8.50;99.90
37268;DHT22;23154;52.542;13.362;2023-04-15T04:02:52;8.40;99.90
37268;DHT22;23154;52.542;13.362;2023-04-15T04:05:18;8.50;99.90
37268;DHT22;23154;52.542;13.362;2023-04-15T04:07:43;8.40;99.90
37268;DHT22;23154;52.542;13.362;2023-04-15T04:10:09;8.40;99.90
37268;DHT22;23154;52.542;13.362;2023-04-15T04:12:35;8.50;99.90
37268;DHT22;23154;52.542;13.362;2023-04-15T04:15:00;8.50;99.90
37268;DHT22;23154;52.542;13.362;2023-04-15T04:17:26;8.50;99.90
37268;DHT22;23154;52.542;13.362;2023-04-15T04:19:52;8.50;99.90
37268;DHT22;23154;52.542;13.362;2023-04-15T04:22:21;8.50;99.90
37268;DHT22;23154;52.542;13.362;2023-04-15T04:24:48;8.50;99.90
37268;DHT22;23154;52.542;13.362;2023-04-15T04:27:14;8.50;99.90
37268;DHT22;23154;52.542;13.362;2023-04-15T04:29:39;8.50;99.90
37268;DHT22;23154;52.542;13.362;2023-04-15T04:32:05;8.50;99.90
37268;DHT22;23154;52.542;13.362;2023-04-15T04:34:31;8.50;99.90
37268;DHT22;23154;52.542;13.362;2023-04-15T04:36:57;8.60;99.90
37268;DHT22;23154;52.542;13.362;2023-04-15T04:39:23;8.60;99.90
37268;DHT22;23154;52.542;13.362;2023-04-15T04:41:49;8.60;99.90
37268;DHT22;23154;52.542;13.362;2023-04-15T04:44:16;8.60;99.90
37268;DHT22;23154;52.542;13.362;2023-04-15T04:46:42;8.70;99.90
37268;DHT22;23154;52.542;13.362;2023-04-15T04:49:08;8.60;99.90
37268;DHT22;23154;52.542;13.362;2023-04-15T04:51:33;8.60;99.90
37268;DHT22;23154;52.542;13.362;2023-04-15T04:53:59;8.70;99.90
37268;DHT22;23154;52.542;13.362;2023-04-15T04:56:25;8.70;99.90
37268;DHT22;23154;52.542;13.362;2023-04-15T04:58:50;8.70;99.90
37268;DHT22;23154;52.542;13.362;2023-04-15T05:01:16;8.80;99.90
37268;DHT22;23154;52.542;13.362;2023-04-15T05:03:42;8.80;99.90
37268;DHT22;23154;52.542;13.362;2023-04-15T05:06:07;8.80;99.90
37268;DHT22;23154;52.542;13.362;2023-04-15T05:08:33;8.80;99.90
37268;DHT22;23154;52.542;13.362;2023-04-15T05:10:59;8.90;99.90
37268;DHT22;23154;52.542;13.362;2023-04-15T05:13:24;8.90;99.90
37268;DHT22;23154;52.542;13.362;2023-04-15T05:15:50;8.90;99.90
37268;DHT22;23154;52.542;13.362;2023-04-15T05:18:16;8.90;99.90
37268;DHT22;23154;52.542;13.362;2023-04-15T05:20:41;9.00;99.90
37268;DHT22;23154;52.542;13.362;2023-04-15T05:23:07;9.00;99.90
37268;DHT22;23154;52.542;13.362;2023-04-15T05:25:33;9.00;99.90
37268;DHT22;23154;52.542;13.362;2023-04-15T05:27:58;9.00;99.90
37268;DHT22;23154;52.542;13.362;2023-04-15T05:30:25;9.00;99.90
37268;DHT22;23154;52.542;13.362;2023-04-15T05:32:51;9.10;99.90
37268;DHT22;23154;52.542;13.362;2023-04-15T05:35:16;9.20;99.90
37268;DHT22;23154;52.542;13.362;2023-04-15T05:37:42;9.20;99.90
37268;DHT22;23154;52.542;13.362;2023-04-15T05:40:08;9.20;99.90
37268;DHT22;23154;52.542;13.362;2023-04-15T05:42:35;9.30;99.90
37268;DHT22;23154;52.542;13.362;2023-04-15T05:45:01;9.30;99.90
37268;DHT22;23154;52.542;13.362;2023-04-15T05:47:29;9.30;99.90
37268;DHT22;23154;52.542;13.362;2023-04-15T05:49:56;9.30;99.90
37268;DHT22;23154;52.542;13.362;2023-04-15T05:52:23;9.30;99.90
37268;DHT22;23154;52.542;13.362;2023-04-15T05:54:49;9.40;99.90
37268;DHT22;23154;52.542;13.362;2023-04-15T05:57:15;9.50;99.90
37268;DHT22;23154;52.542;13.362;2023-04-15T05:59:42;9.50;99.90
37268;DHT22;23154;52.542;13.362;2023-04-15T06:02:09;9.60;99.90
37268;DHT22;23154;52.542;13.362;2023-04-15T06:04:35;9.60;99.90
37268;DHT22;23154;52.542;13.362;2023-04-15T06:07:01;9.60;99.90
37268;DHT22;23154;52.542;13.362;2023-04-15T06:09:27;9.70;99.90
37268;DHT22;23154;52.542;13.362;2023-04-15T06:11:53;9.90;99.90
37268;DHT22;23154;52.542;13.362;2023-04-15T06:14:19;10.00;99.90
37268;DHT22;23154;52.542;13.362;2023-04-15T06:16:45;10.20;99.90
37268;DHT22;23154;52.542;13.362;2023-04-15T06:19:10;10.20;99.90
37268;DHT22;23154;52.542;13.362;2023-04-15T06:21:37;10.20;99.90
37268;DHT22;23154;52.542;13.362;2023-04-15T06:24:02;10.20;99.90
37268;DHT22;23154;52.542;13.362;2023-04-15T06:26:28;10.20;99.90
37268;DHT22;23154;52.542;13.362;2023-04-15T06:28:54;10.30;99.90
37268;DHT22;23154;52.542;13.362;2023-04-15T06:31:20;10.30;99.90
37268;DHT22;23154;52.542;13.362;2023-04-15T06:33:45;10.40;99.90
37268;DHT22;23154;52.542;13.362;2023-04-15T06:36:11;10.50;99.90
37268;DHT22;23154;52.542;13.362;2023-04-15T06:38:37;10.60;99.90
37268;DHT22;23154;52.542;13.362;2023-04-15T06:41:03;10.60;99.90
37268;DHT22;23154;52.542;13.362;2023-04-15T06:43:29;10.70;99.90
37268;DHT22;23154;52.542;13.362;2023-04-15T06:45:55;10.80;99.90
37268;DHT22;23154;52.542;13.362;2023-04-15T06:48:21;10.60;99.90
37268;DHT22;23154;52.542;13.362;2023-04-15T06:50:48;10.80;99.90
37268;DHT22;23154;52.542;13.362;2023-04-15T06:53:13;10.90;99.90
37268;DHT22;23154;52.542;13.362;2023-04-15T06:55:40;10.90;99.90
37268;DHT22;23154;52.542;13.362;2023-04-15T06:58:06;11.00;99.90
37268;DHT22;23154;52.542;13.362;2023-04-15T07:00:32;11.00;99.90
37268;DHT22;23154;52.542;13.362;2023-04-15T07:02:59;10.90;99.90
37268;DHT22;23154;52.542;13.362;2023-04-15T07:05:28;10.80;99.90
37268;DHT22;23154;52.542;13.362;2023-04-15T07:07:53;10.70;99.90
37268;DHT22;23154;52.542;13.362;2023-04-15T07:10:20;10.90;99.90
37268;DHT22;23154;52.542;13.362;2023-04-15T07:12:46;10.90;99.90
37268;DHT22;23154;52.542;13.362;2023-04-15T07:15:12;10.80;99.90
37268;DHT22;23154;52.542;13.362;2023-04-15T07:17:38;11.00;99.90
37268;DHT22;23154;52.542;13.362;2023-04-15T07:20:04;11.10;99.90
37268;DHT22;23154;52.542;13.362;2023-04-15T07:22:29;11.10;99.90
37268;DHT22;23154;52.542;13.362;2023-04-15T07:24:55;10.90;99.90
37268;DHT22;23154;52.542;13.362;2023-04-15T07:27:21;11.00;99.90
37268;DHT22;23154;52.542;13.362;2023-04-15T07:29:47;10.80;99.90
37268;DHT22;23154;52.542;13.362;2023-04-15T07:32:12;10.80;99.90
37268;DHT22;23154;52.542;13.362;2023-04-15T07:34:38;10.70;99.90
37268;DHT22;23154;52.542;13.362;2023-04-15T07:37:04;10.60;99.90
37268;DHT22;23154;52.542;13.362;2023-04-15T07:39:29;10.50;99.90
37268;DHT22;23154;52.542;13.362;2023-04-15T07:41:55;10.40;99.90
37268;DHT22;23154;52.542;13.362;2023-04-15T07:44:21;10.50;99.90
37268;DHT22;23154;52.542;13.362;2023-04-15T07:46:47;10.60;99.90
37268;DHT22;23154;52.542;13.362;2023-04-15T07:49:12;10.70;99.90
37268;DHT22;23154;52.542;13.362;2023-04-15T07:51:38;10.60;99.90
37268;DHT22;23154;52.542;13.362;2023-04-15T07:54:04;10.50;99.90
37268;DHT22;23154;52.542;13.362;2023-04-15T07:56:30;10.60;99.90
37268;DHT22;23154;52.542;13.362;2023-04-15T07:58:55;10.50;99.90
37268;DHT22;23154;52.542;13.362;2023-04-15T08:01:21;10.70;99.90
37268;DHT22;23154;52.542;13.362;2023-04-15T08:03:47;10.70;99.90
37268;DHT22;23154;52.542;13.362;2023-04-15T08:06:12;10.80;99.90
37268;DHT22;23154;52.542;13.362;2023-04-15T08:08:38;10.70;99.90
37268;DHT22;23154;52.542;13.362;2023-04-15T08:11:04;10.60;99.90
37268;DHT22;23154;52.542;13.362;2023-04-15T08:13:30;10.60;99.90
37268;DHT22;23154;52.542;13.362;2023-04-15T08:16:17;10.80;99.90
37268;DHT22;23154;52.542;13.362;2023-04-15T08:18:44;10.80;99.90
37268;DHT22;23154;52.542;13.362;2023-04-15T08:21:10;10.80;99.90
37268;DHT22;23154;52.542;13.362;2023-04-15T08:23:36;10.60;99.90
37268;DHT22;23154;52.542;13.362;2023-04-15T08:26:02;10.60;99.90
37268;DHT22;23154;52.542;13.362;2023-04-15T08:28:27;10.60;99.90
37268;DHT22;23154;52.542;13.362;2023-04-15T08:30:53;10.50;99.90
37268;DHT22;23154;52.542;13.362;2023-04-15T08:33:19;10.60;99.90
37268;DHT22;23154;52.542;13.362;2023-04-15T08:35:45;10.60;99.90
37268;DHT22;23154;52.542;13.362;2023-04-15T08:38:11;10.60;99.90
37268;DHT22;23154;52.542;13.362;2023-04-15T08:40:42;10.70;99.90
37268;DHT22;23154;52.542;13.362;2023-04-15T08:43:11;10.70;99.90
37268;DHT22;23154;52.542;13.362;2023-04-15T08:45:41;10.70;99.90
37268;DHT22;23154;52.542;13.362;2023-04-15T08:48:09;10.70;99.90
37268;DHT22;23154;52.542;13.362;2023-04-15T08:50:39;10.80;99.90
37268;DHT22;23154;52.542;13.362;2023-04-15T08:53:05;11.10;99.90
37268;DHT22;23154;52.542;13.362;2023-04-15T08:55:32;11.00;99.90
37268;DHT22;23154;52.542;13.362;2023-04-15T08:58:01;10.90;99.90
37268;DHT22;23154;52.542;13.362;2023-04-15T09:00:31;10.90;99.90
37268;DHT22;23154;52.542;13.362;2023-04-15T09:02:58;11.00;99.90
37268;DHT22;23154;52.542;13.362;2023-04-15T09:05:24;10.80;99.90
37268;DHT22;23154;52.542;13.362;2023-04-15T09:07:50;10.80;99.90
37268;DHT22;23154;52.542;13.362;2023-04-15T09:10:16;11.00;99.90
37268;DHT22;23154;52.542;13.362;2023-04-15T09:12:42;11.00;99.90
37268;DHT22;23154;52.542;13.362;2023-04-15T09:15:10;11.10;99.90
37268;DHT22;23154;52.542;13.362;2023-04-15T09:17:42;11.00;99.90
37268;DHT22;23154;52.542;13.362;2023-04-15T09:20:10;11.10;99.90
37268;DHT22;23154;52.542;13.362;2023-04-15T09:22:42;10.90;99.90
37268;DHT22;23154;52.542;13.362;2023-04-15T09:27:54;10.80;99.90
37268;DHT22;23154;52.542;13.362;2023-04-15T09:30:21;10.70;99.90
37268;DHT22;23154;52.542;13.362;2023-04-15T09:32:51;10.70;99.90
37268;DHT22;23154;52.542;13.362;2023-04-15T09:35:18;10.80;99.90
37268;DHT22;23154;52.542;13.362;2023-04-15T09:37:44;10.90;99.90
37268;DHT22;23154;52.542;13.362;2023-04-15T09:40:10;11.00;99.90
37268;DHT22;23154;52.542;13.362;2023-04-15T09:42:45;11.00;99.90
37268;DHT22;23154;52.542;13.362;2023-04-15T09:45:18;11.10;99.90
37268;DHT22;23154;52.542;13.362;2023-04-15T09:47:44;11.30;99.90
37268;DHT22;23154;52.542;13.362;2023-04-15T09:50:10;11.20;99.90
37268;DHT22;23154;52.542;13.362;2023-04-15T09:52:41;11.10;99.90
37268;DHT22;23154;52.542;13.362;2023-04-15T09:55:10;11.20;99.90
37268;DHT22;23154;52.542;13.362;2023-04-15T09:57:37;11.00;99.90
37268;DHT22;23154;52.542;13.362;2023-04-15T10:00:04;10.90;99.90
37268;DHT22;23154;52.542;13.362;2023-04-15T10:02:36;10.80;99.90
37268;DHT22;23154;52.542;13.362;2023-04-15T10:05:02;10.80;99.90
37268;DHT22;23154;52.542;13.362;2023-04-15T10:07:28;10.90;99.90
37268;DHT22;23154;52.542;13.362;2023-04-15T10:09:55;11.00;99.90
37268;DHT22;23154;52.542;13.362;2023-04-15T10:12:21;11.00;99.90
37268;DHT22;23154;52.542;13.362;2023-04-15T10:14:55;10.90;99.90
37268;DHT22;23154;52.542;13.362;2023-04-15T10:17:26;10.80;99.90
37268;DHT22;23154;52.542;13.362;2023-04-15T10:19:53;10.70;99.90
37268;DHT22;23154;52.542;13.362;2023-04-15T10:22:20;10.80;99.90
37268;DHT22;23154;52.542;13.362;2023-04-15T10:24:46;10.80;99.90
37268;DHT22;23154;52.542;13.362;2023-04-15T10:27:13;10.90;99.90
37268;DHT22;23154;52.542;13.362;2023-04-15T10:29:40;10.90;99.90
37268;DHT22;23154;52.542;13.362;2023-04-15T10:32:08;10.70;99.90
37268;DHT22;23154;52.542;13.362;2023-04-15T10:34:35;10.80;99.90
37268;DHT22;23154;52.542;13.362;2023-04-15T10:37:01;10.80;99.90
37268;DHT22;23154;52.542;13.362;2023-04-15T10:39:38;10.90;99.90
37268;DHT22;23154;52.542;13.362;2023-04-15T10:42:10;10.90;99.90
37268;DHT22;23154;52.542;13.362;2023-04-15T10:44:36;10.80;99.90
37268;DHT22;23154;52.542;13.362;2023-04-15T10:47:09;10.90;99.90
37268;DHT22;23154;52.542;13.362;2023-04-15T10:49:46;11.10;99.90
37268;DHT22;23154;52.542;13.362;2023-04-15T10:52:16;11.20;99.90
37268;DHT22;23154;52.542;13.362;2023-04-15T10:54:43;11.30;99.90
37268;DHT22;23154;52.542;13.362;2023-04-15T10:57:14;11.40;99.90
37268;DHT22;23154;52.542;13.362;2023-04-15T11:00:02;11.30;99.90
37268;DHT22;23154;52.542;13.362;2023-04-15T11:02:50;11.30;99.90
37268;DHT22;23154;52.542;13.362;2023-04-15T11:05:17;11.20;99.90
37268;DHT22;23154;52.542;13.362;2023-04-15T11:15:36;11.10;99.90
37268;DHT22;23154;52.542;13.362;2023-04-15T11:18:15;11.10;99.90
37268;DHT22;23154;52.542;13.362;2023-04-15T11:20:46;11.10;99.90
37268;DHT22;23154;52.542;13.362;2023-04-15T11:23:13;11.10;99.90
37268;DHT22;23154;52.542;13.362;2023-04-15T11:25:39;11.30;99.90
37268;DHT22;23154;52.542;13.362;2023-04-15T11:28:05;11.00;99.90
37268;DHT22;23154;52.542;13.362;2023-04-15T11:30:36;10.90;99.90
37268;DHT22;23154;52.542;13.362;2023-04-15T11:33:06;11.00;99.90
37268;DHT22;23154;52.542;13.362;2023-04-15T11:35:36;11.10;99.90
37268;DHT22;23154;52.542;13.362;2023-04-15T11:38:08;11.00;99.90
37268;DHT22;23154;52.542;13.362;2023-04-15T11:40:34;10.90;99.90
37268;DHT22;23154;52.542;13.362;2023-04-15T11:43:09;11.00;99.90
37268;DHT22;23154;52.542;13.362;2023-04-15T11:45:58;11.00;99.90
37268;DHT22;23154;52.542;13.362;2023-04-15T11:48:30;10.90;99.90
37268;DHT22;23154;52.542;13.362;2023-04-15T11:50:59;11.10;99.90
37268;DHT22;23154;52.542;13.362;2023-04-15T11:56:01;10.90;99.90
37268;DHT22;23154;52.542;13.362;2023-04-15T11:58:28;11.00;99.90
37268;DHT22;23154;52.542;13.362;2023-04-15T12:00:57;11.00;99.90
37268;DHT22;23154;52.542;13.362;2023-04-15T12:03:28;10.90;99.90
37268;DHT22;23154;52.542;13.362;2023-04-15T12:13:57;11.00;99.90
37268;DHT22;23154;52.542;13.362;2023-04-15T12:16:24;11.10;99.90
37268;DHT22;23154;52.542;13.362;2023-04-15T12:18:54;11.00;99.90
37268;DHT22;23154;52.542;13.362;2023-04-15T12:21:32;11.10;99.90
37268;DHT22;23154;52.542;13.362;2023-04-15T12:24:02;11.30;99.90
37268;DHT22;23154;52.542;13.362;2023-04-15T12:26:35;11.10;99.90
37268;DHT22;23154;52.542;13.362;2023-04-15T12:31:28;11.30;99.90
37268;DHT22;23154;52.542;13.362;2023-04-15T12:33:57;11.30;99.90
37268;DHT22;23154;52.542;13.362;2023-04-15T12:36:23;11.50;99.90
37268;DHT22;23154;52.542;13.362;2023-04-15T12:38:49;11.40;99.90
37268;DHT22;23154;52.542;13.362;2023-04-15T12:41:16;11.60;99.90
37268;DHT22;23154;52.542;13.362;2023-04-15T12:43:44;11.50;99.90
37268;DHT22;23154;52.542;13.362;2023-04-15T12:46:12;11.60;99.90
37268;DHT22;23154;52.542;13.362;2023-04-15T12:48:38;11.60;99.90
37268;DHT22;23154;52.542;13.362;2023-04-15T12:51:04;11.40;99.90
37268;DHT22;23154;52.542;13.362;2023-04-15T12:53:30;11.40;99.90
37268;DHT22;23154;52.542;13.362;2023-04-15T12:55:55;11.40;99.90
37268;DHT22;23154;52.542;13.362;2023-04-15T12:58:22;11.30;99.90
37268;DHT22;23154;52.542;13.362;2023-04-15T13:00:47;11.30;99.90
37268;DHT22;23154;52.542;13.362;2023-04-15T13:03:14;11.40;99.90
37268;DHT22;23154;52.542;13.362;2023-04-15T13:05:40;11.50;99.90
37268;DHT22;23154;52.542;13.362;2023-04-15T13:08:06;11.40;99.90
37268;DHT22;23154;52.542;13.362;2023-04-15T13:10:32;11.30;99.90
37268;DHT22;23154;52.542;13.362;2023-04-15T13:12:58;11.30;99.90
37268;DHT22;23154;52.542;13.362;2023-04-15T13:15:23;11.30;99.90
37268;DHT22;23154;52.542;13.362;2023-04-15T13:17:50;11.30;99.90
37268;DHT22;23154;52.542;13.362;2023-04-15T13:20:16;11.40;99.90
37268;DHT22;23154;52.542;13.362;2023-04-15T13:22:42;11.40;99.90
37268;DHT22;23154;52.542;13.362;2023-04-15T13:25:07;11.50;99.90
37268;DHT22;23154;52.542;13.362;2023-04-15T13:27:33;11.50;99.90
37268;DHT22;23154;52.542;13.362;2023-04-15T13:29:59;11.40;99.90
37268;DHT22;23154;52.542;13.362;2023-04-15T13:32:25;11.50;99.90
37268;DHT22;23154;52.542;13.362;2023-04-15T13:34:51;11.40;99.90
37268;DHT22;23154;52.542;13.362;2023-04-15T13:37:16;11.20;99.90
37268;DHT22;23154;52.542;13.362;2023-04-15T13:39:42;11.10;99.90
37268;DHT22;23154;52.542;13.362;2023-04-15T13:42:08;11.00;99.90
37268;DHT22;23154;52.542;13.362;2023-04-15T13:44:34;11.00;99.90
37268;DHT22;23154;52.542;13.362;2023-04-15T13:47:00;11.00;99.90
37268;DHT22;23154;52.542;13.362;2023-04-15T13:49:26;11.20;99.90
37268;DHT22;23154;52.542;13.362;2023-04-15T13:51:51;11.20;99.90
37268;DHT22;23154;52.542;13.362;2023-04-15T13:54:18;11.30;99.90
37268;DHT22;23154;52.542;13.362;2023-04-15T13:56:44;11.20;99.90
37268;DHT22;23154;52.542;13.362;2023-04-15T13:59:10;11.20;99.90
37268;DHT22;23154;52.542;13.362;2023-04-15T14:01:36;11.10;99.90
37268;DHT22;23154;52.542;13.362;2023-04-15T14:04:01;11.10;99.90
37268;DHT22;23154;52.542;13.362;2023-04-15T14:06:28;11.00;99.90
37268;DHT22;23154;52.542;13.362;2023-04-15T14:08:55;11.10;99.90
37268;DHT22;23154;52.542;13.362;2023-04-15T14:11:21;11.20;99.90
37268;DHT22;23154;52.542;13.362;2023-04-15T14:13:47;11.10;99.90
37268;DHT22;23154;52.542;13.362;2023-04-15T14:16:13;11.00;99.90
37268;DHT22;23154;52.542;13.362;2023-04-15T14:18:39;11.10;99.90
37268;DHT22;23154;52.542;13.362;2023-04-15T14:21:05;11.20;99.90
37268;DHT22;23154;52.542;13.362;2023-04-15T14:23:31;11.20;99.90
37268;DHT22;23154;52.542;13.362;2023-04-15T14:25:58;11.20;99.90
37268;DHT22;23154;52.542;13.362;2023-04-15T14:28:24;11.10;99.90
37268;DHT22;23154;52.542;13.362;2023-04-15T14:30:49;11.20;99.90
37268;DHT22;23154;52.542;13.362;2023-04-15T14:33:15;11.30;99.90
37268;DHT22;23154;52.542;13.362;2023-04-15T14:35:41;11.20;99.90
37268;DHT22;23154;52.542;13.362;2023-04-15T14:38:06;11.20;99.90
37268;DHT22;23154;52.542;13.362;2023-04-15T14:40:35;11.10;99.90
37268;DHT22;23154;52.542;13.362;2023-04-15T14:43:01;11.10;99.90
37268;DHT22;23154;52.542;13.362;2023-04-15T14:45:27;11.00;99.90
37268;DHT22;23154;52.542;13.362;2023-04-15T14:47:54;11.10;99.90
37268;DHT22;23154;52.542;13.362;2023-04-15T14:50:20;10.90;99.90
37268;DHT22;23154;52.542;13.362;2023-04-15T14:52:46;10.90;99.90
37268;DHT22;23154;52.542;13.362;2023-04-15T14:55:12;11.00;99.90
37268;DHT22;23154;52.542;13.362;2023-04-15T14:57:39;11.10;99.90
37268;DHT22;23154;52.542;13.362;2023-04-15T15:00:06;10.90;99.90
37268;DHT22;23154;52.542;13.362;2023-04-15T15:02:32;11.00;99.90
37268;DHT22;23154;52.542;13.362;2023-04-15T15:05:00;11.00;99.90
37268;DHT22;23154;52.542;13.362;2023-04-15T15:07:25;10.90;99.90
37268;DHT22;23154;52.542;13.362;2023-04-15T15:09:52;10.80;99.90
37268;DHT22;23154;52.542;13.362;2023-04-15T15:12:17;10.80;99.90
37268;DHT22;23154;52.542;13.362;2023-04-15T15:14:43;10.80;99.90
37268;DHT22;23154;52.542;13.362;2023-04-15T15:17:09;10.90;99.90
37268;DHT22;23154;52.542;13.362;2023-04-15T15:19:35;10.90;99.90
37268;DHT22;23154;52.542;13.362;2023-04-15T15:22:02;10.90;99.90
37268;DHT22;23154;52.542;13.362;2023-04-15T15:24:28;10.90;99.90
37268;DHT22;23154;52.542;13.362;2023-04-15T15:26:54;10.80;99.90
37268;DHT22;23154;52.542;13.362;2023-04-15T15:29:19;10.80;99.90
37268;DHT22;23154;52.542;13.362;2023-04-15T15:31:45;10.80;99.90
37268;DHT22;23154;52.542;13.362;2023-04-15T15:34:11;10.80;99.90
37268;DHT22;23154;52.542;13.362;2023-04-15T15:36:36;10.80;99.90
37268;DHT22;23154;52.542;13.362;2023-04-15T15:39:02;10.80;99.90
37268;DHT22;23154;52.542;13.362;2023-04-15T15:41:28;10.80;99.90
37268;DHT22;23154;52.542;13.362;2023-04-15T15:43:54;10.80;99.90